createdAt,value
2023-05-19T00:01:15.335Z,32.78
2023-05-19T00:04:05.157Z,14.55
2023-05-19T00:06:32.900Z,16.77
2023-05-19T00:09:01.987Z,20.25
2023-05-19T00:11:29.529Z,22.17
2023-05-19T00:13:59.130Z,14.80
2023-05-19T00:16:28.161Z,17.38
2023-05-19T00:18:55.404Z,17.45
2023-05-19T00:21:22.098Z,23.63
2023-05-19T00:23:49.131Z,12.85
2023-05-19T00:26:15.811Z,20.25
2023-05-19T00:28:51.414Z,18.13
2023-05-19T00:31:18.512Z,20.55
2023-05-19T00:33:45.398Z,16.27
2023-05-19T00:36:12.896Z,19.67
2023-05-19T00:38:39.748Z,22.92
2023-05-19T00:41:07.092Z,24.10
2023-05-19T00:43:37.093Z,18.00
2023-05-19T00:46:04.437Z,18.45
2023-05-19T00:48:31.079Z,16.42
2023-05-19T00:51:04.908Z,22.77
2023-05-19T00:53:33.769Z,16.20
2023-05-19T00:56:01.689Z,18.88
2023-05-19T00:58:30.484Z,15.43
2023-05-19T01:01:07.310Z,17.50
2023-05-19T01:03:35.822Z,20.67
2023-05-19T01:06:07.350Z,15.45
2023-05-19T01:08:38.380Z,18.67
2023-05-19T01:11:06.805Z,15.68
2023-05-19T01:13:38.147Z,22.27
2023-05-19T01:16:12.785Z,17.05
2023-05-19T01:21:45.150Z,13.60
2023-05-19T01:24:39.951Z,14.30
2023-05-19T01:27:33.738Z,17.08
2023-05-19T01:30:25.652Z,16.48
2023-05-19T01:32:59.866Z,19.30
2023-05-19T01:35:28.012Z,16.75
2023-05-19T01:37:59.386Z,18.27
2023-05-19T01:40:27.323Z,14.93
2023-05-19T01:42:57.821Z,13.98
2023-05-19T01:45:28.686Z,16.42
2023-05-19T01:47:57.873Z,15.73
2023-05-19T01:50:26.019Z,9.70
2023-05-19T01:52:52.736Z,14.93
2023-05-19T01:55:21.243Z,11.07
2023-05-19T01:57:50.998Z,11.65
2023-05-19T02:00:26.759Z,11.02
2023-05-19T02:03:15.520Z,13.20
2023-05-19T02:06:22.828Z,15.40
2023-05-19T02:09:16.078Z,12.48
2023-05-19T02:11:54.692Z,12.93
2023-05-19T02:14:30.152Z,11.48
2023-05-19T02:16:59.096Z,10.93
2023-05-19T02:19:29.356Z,12.00
2023-05-19T02:21:57.017Z,9.77
2023-05-19T02:24:23.842Z,10.93
2023-05-19T02:26:52.121Z,13.60
2023-05-19T02:29:21.806Z,13.55
2023-05-19T02:31:50.343Z,12.23
2023-05-19T02:34:17.004Z,12.35
2023-05-19T02:36:43.695Z,13.45
2023-05-19T02:39:11.122Z,10.23
2023-05-19T02:41:39.643Z,10.40
2023-05-19T02:44:06.402Z,12.65
2023-05-19T02:46:34.107Z,17.25
2023-05-19T02:49:00.782Z,10.82
2023-05-19T02:51:27.722Z,15.85
2023-05-19T02:53:54.557Z,9.93
2023-05-19T02:56:21.740Z,14.57
2023-05-19T02:58:48.418Z,18.00
2023-05-19T03:01:15.815Z,14.45
2023-05-19T03:03:42.569Z,11.15
2023-05-19T03:06:09.515Z,8.77
2023-05-19T03:08:40.132Z,15.02
2023-05-19T03:11:09.257Z,18.37
2023-05-19T03:13:35.877Z,10.73
2023-05-19T03:16:03.469Z,15.95
2023-05-19T03:18:30.666Z,9.10
2023-05-19T03:20:57.716Z,11.30
2023-05-19T03:23:24.771Z,11.55
2023-05-19T03:25:51.681Z,14.38
2023-05-19T03:28:18.314Z,11.60
2023-05-19T03:30:45.247Z,12.52
2023-05-19T03:33:17.279Z,13.15
2023-05-19T03:35:44.780Z,12.07
2023-05-19T03:38:12.171Z,13.20
2023-05-19T03:40:41.809Z,8.40
2023-05-19T03:43:11.052Z,13.73
2023-05-19T03:45:45.398Z,9.82
2023-05-19T03:48:32.723Z,13.13
2023-05-19T03:51:23.223Z,14.02
2023-05-19T03:53:53.246Z,11.35
2023-05-19T03:56:23.030Z,12.20
2023-05-19T03:58:49.927Z,20.45
2023-05-19T04:01:16.606Z,14.88
2023-05-19T04:03:43.512Z,19.35
2023-05-19T04:06:10.155Z,13.43
2023-05-19T04:08:36.888Z,15.57
2023-05-19T04:11:04.606Z,13.60
2023-05-19T04:13:33.967Z,12.93
2023-05-19T04:16:01.431Z,13.15
2023-05-19T04:18:29.196Z,12.45
2023-05-19T04:20:56.239Z,11.68
2023-05-19T04:23:23.224Z,16.15
2023-05-19T04:25:50.055Z,12.93
2023-05-19T04:28:18.204Z,14.88
2023-05-19T04:30:46.536Z,17.90
2023-05-19T04:33:13.962Z,15.48
2023-05-19T04:35:42.130Z,15.45
2023-05-19T04:38:12.026Z,16.38
2023-05-19T04:40:40.413Z,17.33
2023-05-19T04:43:09.495Z,14.50
2023-05-19T04:45:37.725Z,14.70
2023-05-19T04:48:05.333Z,14.77
2023-05-19T04:50:32.769Z,20.30
2023-05-19T04:53:00.480Z,17.65
2023-05-19T04:55:27.589Z,17.33
2023-05-19T04:57:54.235Z,11.90
2023-05-19T05:00:23.022Z,12.35
2023-05-19T05:02:57.679Z,12.25
2023-05-19T05:05:26.064Z,13.48
2023-05-19T05:07:54.055Z,14.10
2023-05-19T05:10:22.339Z,14.75
2023-05-19T05:12:49.839Z,14.88
2023-05-19T05:15:17.501Z,12.27
2023-05-19T05:17:46.674Z,19.83
2023-05-19T05:20:14.350Z,14.93
2023-05-19T05:22:42.107Z,15.30
2023-05-19T05:25:10.050Z,11.73
2023-05-19T05:27:37.773Z,9.43
2023-05-19T05:30:06.911Z,11.90
2023-05-19T05:32:33.989Z,10.38
2023-05-19T05:35:03.230Z,14.07
2023-05-19T05:37:31.181Z,10.45
2023-05-19T05:39:57.936Z,10.48
2023-05-19T05:42:25.325Z,12.45
2023-05-19T05:44:53.033Z,12.10
2023-05-19T05:47:20.225Z,15.38
2023-05-19T05:49:48.740Z,10.82
2023-05-19T05:52:19.737Z,10.88
2023-05-19T05:54:51.179Z,9.68
2023-05-19T05:57:19.960Z,14.25
2023-05-19T05:59:47.321Z,11.70
2023-05-19T06:02:14.794Z,13.90
2023-05-19T06:04:41.762Z,13.48
2023-05-19T06:07:08.937Z,18.08
2023-05-19T06:09:37.965Z,10.32
2023-05-19T06:12:07.350Z,11.18
2023-05-19T06:14:39.799Z,15.48
2023-05-19T06:17:36.124Z,12.48
2023-05-19T06:20:05.519Z,10.73
2023-05-19T06:22:32.376Z,11.18
2023-05-19T06:25:00.700Z,15.82
2023-05-19T06:27:27.643Z,11.02
2023-05-19T06:29:54.474Z,12.32
2023-05-19T06:32:21.521Z,14.95
2023-05-19T06:34:54.293Z,14.02
2023-05-19T06:37:24.285Z,11.00
2023-05-19T06:39:53.046Z,17.80
2023-05-19T06:42:24.153Z,9.93
2023-05-19T06:45:11.014Z,11.75
2023-05-19T06:47:40.939Z,11.57
2023-05-19T06:50:08.991Z,9.30
2023-05-19T06:52:37.732Z,15.25
2023-05-19T06:55:04.827Z,11.00
2023-05-19T06:57:32.744Z,14.15
2023-05-19T07:00:01.202Z,13.05
2023-05-19T07:02:28.347Z,11.40
2023-05-19T07:04:55.418Z,8.65
2023-05-19T07:07:22.692Z,13.23
2023-05-19T07:09:50.367Z,12.43
2023-05-19T07:12:17.837Z,11.35
2023-05-19T07:14:44.751Z,10.73
2023-05-19T07:17:12.923Z,16.00
2023-05-19T07:19:43.792Z,11.15
2023-05-19T07:22:10.511Z,14.27
2023-05-19T07:24:37.238Z,10.63
2023-05-19T07:27:04.413Z,9.82
2023-05-19T07:29:31.410Z,13.55
2023-05-19T07:31:58.566Z,8.65
2023-05-19T07:34:25.338Z,12.73
2023-05-19T07:36:52.191Z,13.93
2023-05-19T07:39:19.337Z,14.07
2023-05-19T07:41:52.577Z,9.50
2023-05-19T07:44:19.394Z,13.43
2023-05-19T07:46:46.250Z,12.13
2023-05-19T07:49:13.037Z,10.85
2023-05-19T07:51:41.995Z,9.93
2023-05-19T07:54:08.955Z,9.30
2023-05-19T07:56:35.715Z,9.68
2023-05-19T07:59:04.773Z,11.43
2023-05-19T08:01:32.950Z,12.02
2023-05-19T08:04:00.231Z,10.02
2023-05-19T08:06:28.076Z,9.68
2023-05-19T08:08:54.690Z,12.98
2023-05-19T08:11:21.633Z,13.07
2023-05-19T08:13:51.775Z,13.68
2023-05-19T08:16:18.746Z,7.45
2023-05-19T08:18:45.524Z,12.57
2023-05-19T08:21:12.340Z,13.73
2023-05-19T08:23:39.100Z,10.55
2023-05-19T08:26:05.843Z,9.52
2023-05-19T08:28:33.602Z,8.07
2023-05-19T08:31:00.534Z,11.25
2023-05-19T08:33:27.384Z,9.30
2023-05-19T08:35:57.574Z,10.68
2023-05-19T08:38:28.224Z,8.98
2023-05-19T08:40:55.247Z,13.88
2023-05-19T08:43:22.151Z,8.05
2023-05-19T08:45:48.913Z,7.40
2023-05-19T08:48:18.338Z,8.13
2023-05-19T08:51:00.619Z,12.73
2023-05-19T08:53:36.697Z,8.02
2023-05-19T08:56:17.971Z,9.13
2023-05-19T08:58:46.024Z,5.47
2023-05-19T09:01:17.117Z,8.68
2023-05-19T09:03:47.486Z,9.77
2023-05-19T09:06:14.472Z,9.35
2023-05-19T09:08:42.540Z,7.03
2023-05-19T09:11:10.263Z,9.23
2023-05-19T09:13:36.970Z,8.80
2023-05-19T09:16:04.560Z,12.32
2023-05-19T09:18:31.892Z,9.13
2023-05-19T09:21:03.217Z,7.88
2023-05-19T09:23:34.133Z,8.95
2023-05-19T09:26:07.767Z,13.30
2023-05-19T09:28:36.364Z,8.73
2023-05-19T09:31:09.975Z,9.27
2023-05-19T09:33:45.500Z,8.95
2023-05-19T09:36:13.629Z,8.38
2023-05-19T09:38:40.521Z,10.35
2023-05-19T09:41:09.171Z,8.02
2023-05-19T09:43:36.381Z,7.07
2023-05-19T09:46:09.218Z,6.93
2023-05-19T09:48:37.589Z,8.13
2023-05-19T09:51:07.577Z,8.07
2023-05-19T09:53:34.803Z,8.30
2023-05-19T09:56:02.422Z,8.60
2023-05-19T09:58:37.063Z,7.72
2023-05-19T10:01:05.359Z,8.55
2023-05-19T10:03:33.475Z,7.85
2023-05-19T10:06:04.968Z,5.07
2023-05-19T10:08:33.726Z,9.23
2023-05-19T10:11:01.079Z,5.55
2023-05-19T10:13:29.703Z,6.15
2023-05-19T10:15:59.788Z,9.02
2023-05-19T10:18:27.909Z,8.27
2023-05-19T10:20:56.076Z,9.60
2023-05-19T10:23:24.040Z,9.38
2023-05-19T10:25:54.792Z,4.13
2023-05-19T10:28:25.411Z,10.00
2023-05-19T10:30:56.834Z,7.60
2023-05-19T10:33:43.763Z,10.85
2023-05-19T10:36:35.413Z,6.95
2023-05-19T10:39:09.827Z,10.02
2023-05-19T10:42:08.946Z,4.93
2023-05-19T10:44:54.553Z,9.63
2023-05-19T10:47:25.453Z,8.68
2023-05-19T10:49:55.912Z,9.02
2023-05-19T10:52:29.625Z,8.38
2023-05-19T10:54:58.400Z,4.63
2023-05-19T10:57:32.156Z,6.15
2023-05-19T11:00:11.670Z,6.20
2023-05-19T11:02:43.182Z,7.20
2023-05-19T11:05:16.271Z,5.43
2023-05-19T11:07:47.793Z,10.85
2023-05-19T11:10:22.429Z,9.25
2023-05-19T11:15:18.597Z,5.15
2023-05-19T11:17:48.901Z,9.23
2023-05-19T11:20:26.998Z,8.25
2023-05-19T11:23:05.801Z,7.22
2023-05-19T11:25:44.747Z,6.93
2023-05-19T11:28:14.416Z,7.28
2023-05-19T11:30:46.836Z,6.97
2023-05-19T11:33:14.133Z,6.85
2023-05-19T11:35:41.434Z,6.35
2023-05-19T11:38:08.708Z,6.25
2023-05-19T11:40:35.862Z,8.02
2023-05-19T11:43:02.675Z,15.23
2023-05-19T11:45:32.681Z,6.03
2023-05-19T11:48:03.154Z,8.80
2023-05-19T11:50:31.875Z,7.03
2023-05-19T11:53:00.948Z,6.40
2023-05-19T11:55:27.928Z,9.68
2023-05-19T11:58:03.970Z,3.92
2023-05-19T12:00:39.320Z,6.22
2023-05-19T12:03:06.871Z,10.40
2023-05-19T12:05:39.945Z,5.40
2023-05-19T12:08:08.979Z,7.53
2023-05-19T12:10:35.913Z,11.65
2023-05-19T12:13:06.313Z,6.63
2023-05-19T12:15:33.706Z,8.38
2023-05-19T12:18:02.125Z,10.48
2023-05-19T12:20:35.627Z,12.07
2023-05-19T12:23:03.696Z,7.88
2023-05-19T12:25:31.744Z,4.78
2023-05-19T12:28:00.477Z,9.70
2023-05-19T12:30:29.004Z,7.75
2023-05-19T12:32:57.838Z,7.38
2023-05-19T12:35:30.040Z,7.82
2023-05-19T12:37:57.712Z,6.30
2023-05-19T12:40:26.206Z,5.60
2023-05-19T12:42:59.110Z,10.02
2023-05-19T12:45:28.320Z,8.45
2023-05-19T12:47:56.209Z,7.03
2023-05-19T12:50:31.401Z,8.48
2023-05-19T12:52:59.898Z,6.88
2023-05-19T12:55:26.848Z,7.97
2023-05-19T12:57:59.551Z,7.07
2023-05-19T13:00:29.011Z,8.73
2023-05-19T13:03:01.756Z,9.05
2023-05-19T13:05:30.433Z,9.13
2023-05-19T13:07:58.866Z,6.45
2023-05-19T13:10:29.744Z,8.73
2023-05-19T13:12:57.042Z,6.88
2023-05-19T13:15:26.151Z,5.72
2023-05-19T13:17:54.122Z,12.15
2023-05-19T13:20:21.892Z,8.30
2023-05-19T13:22:49.615Z,8.07
2023-05-19T13:25:16.383Z,8.25
2023-05-19T13:27:45.974Z,6.78
2023-05-19T13:30:18.636Z,5.80
2023-05-19T13:32:46.014Z,8.10
2023-05-19T13:35:14.999Z,6.13
2023-05-19T13:37:42.748Z,7.15
2023-05-19T13:40:10.176Z,5.78
2023-05-19T13:42:37.011Z,4.82
2023-05-19T13:45:05.112Z,5.05
2023-05-19T13:47:32.186Z,7.47
2023-05-19T13:49:58.858Z,6.97
2023-05-19T13:52:28.141Z,6.38
2023-05-19T13:54:56.684Z,8.35
2023-05-19T13:57:24.053Z,7.10
2023-05-19T14:00:01.759Z,5.15
2023-05-19T14:02:39.612Z,9.48
2023-05-19T14:05:07.493Z,8.55
2023-05-19T14:07:35.126Z,8.82
2023-05-19T14:10:03.938Z,10.13
2023-05-19T14:12:41.593Z,4.60
2023-05-19T14:15:17.632Z,5.65
2023-05-19T14:17:44.432Z,6.68
2023-05-19T14:20:12.090Z,6.93
2023-05-19T14:22:38.683Z,7.10
2023-05-19T14:25:05.959Z,6.47
2023-05-19T14:27:34.594Z,8.18
2023-05-19T14:30:01.366Z,8.70
2023-05-19T14:32:30.210Z,5.75
2023-05-19T14:34:57.462Z,7.70
2023-05-19T14:37:26.524Z,4.13
2023-05-19T14:39:53.591Z,7.55
2023-05-19T14:42:20.124Z,8.10
2023-05-19T14:44:46.833Z,8.18
2023-05-19T14:47:13.852Z,10.55
2023-05-19T14:49:40.770Z,7.22
2023-05-19T14:52:07.512Z,7.32
2023-05-19T14:54:34.373Z,6.05
2023-05-19T14:57:01.638Z,6.43
2023-05-19T14:59:29.718Z,6.47
2023-05-19T15:01:56.332Z,7.22
2023-05-19T15:04:23.263Z,5.80
2023-05-19T15:06:58.130Z,5.57
2023-05-19T15:09:32.422Z,6.97
2023-05-19T15:12:01.277Z,5.38
2023-05-19T15:14:30.478Z,7.25
2023-05-19T15:16:58.044Z,6.13
2023-05-19T15:19:25.034Z,4.03
2023-05-19T15:21:51.775Z,5.15
2023-05-19T15:24:19.172Z,6.68
2023-05-19T15:26:47.180Z,11.07
2023-05-19T15:29:13.885Z,6.15
2023-05-19T15:31:40.729Z,9.00
2023-05-19T15:34:07.531Z,5.78
2023-05-19T15:36:34.246Z,6.00
2023-05-19T15:39:01.039Z,5.40
2023-05-19T15:41:27.994Z,5.18
2023-05-19T15:43:54.908Z,8.43
2023-05-19T15:46:21.674Z,7.50
2023-05-19T15:48:48.312Z,9.15
2023-05-19T15:51:15.063Z,5.80
2023-05-19T15:53:42.057Z,7.85
2023-05-19T15:56:08.997Z,7.10
2023-05-19T15:58:35.855Z,7.43
2023-05-19T16:01:02.986Z,6.32
2023-05-19T16:03:30.231Z,8.45
2023-05-19T16:05:57.158Z,5.70
2023-05-19T16:08:24.060Z,5.43
2023-05-19T16:10:51.903Z,7.05
2023-05-19T16:13:18.799Z,4.03
2023-05-19T16:15:45.803Z,9.23
2023-05-19T16:18:14.073Z,6.53
2023-05-19T16:20:41.060Z,5.35
2023-05-19T16:23:08.003Z,6.63
2023-05-19T16:25:34.826Z,7.90
2023-05-19T16:28:01.731Z,5.28
2023-05-19T16:30:28.592Z,7.38
2023-05-19T16:32:55.449Z,9.80
2023-05-19T16:35:22.355Z,6.57
2023-05-19T16:37:49.214Z,6.28
2023-05-19T16:40:15.885Z,9.23
2023-05-19T16:42:42.719Z,6.30
2023-05-19T16:45:10.005Z,7.55
2023-05-19T16:47:36.938Z,8.23
2023-05-19T16:50:04.227Z,6.75
2023-05-19T16:52:31.121Z,6.90
2023-05-19T16:54:57.978Z,4.72
2023-05-19T16:57:24.639Z,8.20
2023-05-19T16:59:51.426Z,7.20
2023-05-19T17:02:18.499Z,7.00
2023-05-19T17:04:45.175Z,8.52
2023-05-19T17:07:15.748Z,5.68
2023-05-19T17:09:43.449Z,5.30
2023-05-19T17:12:10.941Z,7.05
2023-05-19T17:14:37.784Z,8.52
2023-05-19T17:17:04.867Z,7.88
2023-05-19T17:19:32.037Z,5.75
2023-05-19T17:22:02.115Z,7.38
2023-05-19T17:24:29.088Z,10.98
2023-05-19T17:26:55.859Z,7.88
2023-05-19T17:29:22.600Z,6.78
2023-05-19T17:31:49.339Z,8.38
2023-05-19T17:34:16.018Z,6.60
2023-05-19T17:36:42.822Z,9.93
2023-05-19T17:39:09.500Z,8.25
2023-05-19T17:41:36.394Z,6.30
2023-05-19T17:44:03.895Z,11.20
2023-05-19T17:46:34.681Z,5.80
2023-05-19T17:49:02.006Z,6.70
2023-05-19T17:51:29.057Z,8.77
2023-05-19T17:53:55.915Z,7.50
2023-05-19T17:56:23.009Z,7.47
2023-05-19T17:58:50.066Z,9.93
2023-05-19T18:01:18.068Z,8.13
2023-05-19T18:03:49.523Z,5.38
2023-05-19T18:06:20.645Z,7.40
2023-05-19T18:08:50.576Z,9.00
2023-05-19T18:11:18.575Z,8.77
2023-05-19T18:13:45.604Z,7.03
2023-05-19T18:16:12.721Z,9.02
2023-05-19T18:18:43.590Z,6.43
2023-05-19T18:21:17.978Z,5.00
2023-05-19T18:23:45.805Z,7.22
2023-05-19T18:26:16.070Z,9.80
2023-05-19T18:28:43.389Z,5.57
2023-05-19T18:31:15.836Z,7.88
2023-05-19T18:33:43.225Z,9.13
2023-05-19T18:36:10.105Z,6.47
2023-05-19T18:38:36.782Z,8.10
2023-05-19T18:41:03.380Z,10.38
2023-05-19T18:43:32.359Z,7.97
2023-05-19T18:45:59.086Z,6.47
2023-05-19T18:48:25.922Z,10.57
2023-05-19T18:50:52.735Z,8.50
2023-05-19T18:53:21.279Z,9.93
2023-05-19T18:55:47.939Z,5.38
2023-05-19T18:58:18.404Z,8.73
2023-05-19T19:00:45.324Z,7.43
2023-05-19T19:03:12.188Z,8.65
2023-05-19T19:05:39.863Z,10.10
2023-05-19T19:08:06.619Z,8.93
2023-05-19T19:10:34.768Z,12.20
2023-05-19T19:13:02.008Z,10.48
2023-05-19T19:15:28.833Z,6.97
2023-05-19T19:17:55.483Z,9.38
2023-05-19T19:20:22.188Z,12.32
2023-05-19T19:22:48.788Z,12.70
2023-05-19T19:25:15.699Z,11.00
2023-05-19T19:27:42.580Z,14.77
2023-05-19T19:30:09.561Z,10.35
2023-05-19T19:32:36.294Z,8.75
2023-05-19T19:35:02.969Z,7.53
2023-05-19T19:37:29.628Z,6.78
2023-05-19T19:39:56.252Z,6.75
2023-05-19T19:42:23.102Z,13.32
2023-05-19T19:44:49.841Z,9.25
2023-05-19T19:47:16.554Z,9.00
2023-05-19T19:49:43.238Z,8.52
2023-05-19T19:52:10.068Z,10.90
2023-05-19T19:54:36.935Z,9.85
2023-05-19T19:57:04.145Z,6.78
2023-05-19T19:59:31.222Z,9.57
2023-05-19T20:01:58.647Z,8.00
2023-05-19T20:04:25.580Z,6.97
2023-05-19T20:06:52.606Z,7.80
2023-05-19T20:09:22.293Z,6.63
2023-05-19T20:11:49.586Z,9.73
2023-05-19T20:14:18.839Z,8.77
2023-05-19T20:16:46.766Z,14.70
2023-05-19T20:19:16.618Z,10.93
2023-05-19T20:21:43.573Z,8.80
2023-05-19T20:24:10.679Z,10.18
2023-05-19T20:26:37.479Z,12.25
2023-05-19T20:29:04.234Z,9.23
2023-05-19T20:31:30.973Z,11.15
2023-05-19T20:33:59.379Z,7.47
2023-05-19T20:36:27.660Z,8.93
2023-05-19T20:38:54.582Z,9.15
2023-05-19T20:41:22.540Z,6.72
2023-05-19T20:43:49.421Z,7.47
2023-05-19T20:46:16.352Z,8.10
2023-05-19T20:48:43.071Z,8.23
2023-05-19T20:51:09.847Z,9.07
2023-05-19T20:53:36.910Z,8.57
2023-05-19T20:56:05.553Z,9.00
2023-05-19T20:58:32.665Z,10.13
2023-05-19T21:00:59.644Z,6.47
2023-05-19T21:03:30.370Z,6.40
2023-05-19T21:05:57.281Z,14.57
2023-05-19T21:08:25.655Z,7.43
2023-05-19T21:10:52.729Z,9.00
2023-05-19T21:13:24.965Z,9.80
2023-05-19T21:15:51.953Z,10.80
2023-05-19T21:18:21.387Z,8.00
2023-05-19T21:20:48.520Z,8.82
2023-05-19T21:23:15.412Z,7.35
2023-05-19T21:25:44.517Z,11.13
2023-05-19T21:28:11.963Z,12.13
2023-05-19T21:30:38.621Z,11.13
2023-05-19T21:33:05.421Z,9.57
2023-05-19T21:35:32.291Z,10.02
2023-05-19T21:38:03.910Z,10.63
2023-05-19T21:40:37.798Z,10.10
2023-05-19T21:43:06.057Z,13.32
2023-05-19T21:45:32.786Z,8.73
2023-05-19T21:47:59.574Z,13.18
2023-05-19T21:50:27.086Z,6.78
2023-05-19T21:52:54.039Z,8.82
2023-05-19T21:55:32.100Z,9.98
2023-05-19T21:58:00.871Z,9.35
2023-05-19T22:00:33.255Z,11.63
2023-05-19T22:03:00.788Z,13.13
2023-05-19T22:05:30.383Z,9.80
2023-05-19T22:07:57.628Z,9.13
2023-05-19T22:10:24.447Z,10.43
2023-05-19T22:12:51.418Z,12.27
2023-05-19T22:15:18.590Z,10.00
2023-05-19T22:17:45.627Z,10.73
2023-05-19T22:20:12.673Z,8.98
2023-05-19T22:22:39.608Z,7.90
2023-05-19T22:25:06.981Z,8.68
2023-05-19T22:27:33.994Z,13.98
2023-05-19T22:30:01.026Z,9.65
2023-05-19T22:32:28.017Z,11.15
2023-05-19T22:34:55.009Z,11.95
2023-05-19T22:37:23.920Z,8.50
2023-05-19T22:39:51.495Z,7.13
2023-05-19T22:42:18.724Z,8.95
2023-05-19T22:44:45.880Z,9.52
2023-05-19T22:47:13.950Z,6.97
2023-05-19T22:49:41.567Z,5.75
2023-05-19T22:52:10.526Z,6.93
2023-05-19T22:54:37.707Z,7.22
2023-05-19T22:57:05.156Z,8.38
2023-05-19T22:59:32.071Z,12.20
2023-05-19T23:01:58.717Z,9.35
2023-05-19T23:04:25.325Z,7.97
2023-05-19T23:06:52.444Z,9.05
2023-05-19T23:09:19.192Z,8.68
2023-05-19T23:11:46.249Z,12.48
2023-05-19T23:14:13.115Z,8.85
2023-05-19T23:16:40.313Z,7.13
2023-05-19T23:19:07.189Z,7.95
2023-05-19T23:21:33.955Z,7.28
2023-05-19T23:24:00.652Z,7.13
2023-05-19T23:26:27.412Z,8.27
2023-05-19T23:28:54.033Z,6.90
2023-05-19T23:31:20.646Z,12.07
2023-05-19T23:33:47.459Z,6.60
2023-05-19T23:36:14.514Z,13.77
2023-05-19T23:38:41.255Z,6.25
2023-05-19T23:41:08.388Z,5.18
2023-05-19T23:43:35.129Z,8.52
2023-05-19T23:46:01.940Z,10.60
2023-05-19T23:48:29.449Z,7.45
2023-05-19T23:50:57.464Z,12.18
2023-05-19T23:53:24.582Z,4.45
2023-05-19T23:55:51.678Z,10.90
2023-05-19T23:58:19.098Z,6.50
